createdAt,value
2017-04-18T00:00:24.787Z,100859.73
2017-04-18T00:01:25.254Z,100859.83
2017-04-18T00:02:25.426Z,100861.27
2017-04-18T00:03:25.666Z,100858.13
2017-04-18T00:04:25.802Z,100860.94
2017-04-18T00:05:28.050Z,100857.78
2017-04-18T00:06:30.474Z,100866.98
2017-04-18T00:07:30.634Z,100864.78
2017-04-18T00:08:30.826Z,100867.50
2017-04-18T00:09:31.896Z,100858.56
2017-04-18T00:10:34.045Z,100862.65
2017-04-18T00:11:35.312Z,100857.20
2017-04-18T00:12:37.775Z,100856.34
2017-04-18T00:13:41.969Z,100865.89
2017-04-18T00:14:44.482Z,100859.28
2017-04-18T00:15:46.335Z,100856.12
2017-04-18T00:16:49.170Z,100864.31
2017-04-18T00:17:52.191Z,100859.88
2017-04-18T00:18:52.466Z,100863.45
2017-04-18T00:19:56.574Z,100856.73
2017-04-18T00:20:57.831Z,100862.27
2017-04-18T00:21:59.454Z,100861.33
2017-04-18T00:23:00.491Z,100864.48
2017-04-18T00:24:02.967Z,100859.88
2017-04-18T00:25:05.347Z,100859.45
2017-04-18T00:26:07.930Z,100861.24
2017-04-18T00:27:09.230Z,100856.30
2017-04-18T00:28:10.563Z,100864.48
2017-04-18T00:29:10.686Z,100864.91
2017-04-18T00:30:11.423Z,100863.13
2017-04-18T00:31:11.632Z,100867.12
2017-04-18T00:32:12.151Z,100858.43
2017-04-18T00:33:12.745Z,100866.61
2017-04-18T00:34:12.894Z,100859.37
2017-04-18T00:35:13.063Z,100861.16
2017-04-18T00:36:13.217Z,100858.09
2017-04-18T00:37:14.546Z,100860.13
2017-04-18T00:38:17.923Z,100864.22
2017-04-18T00:39:21.782Z,100858.25
2017-04-18T00:40:26.392Z,100865.16
2017-04-18T00:41:29.271Z,100860.44
2017-04-18T00:42:31.549Z,100864.22
2017-04-18T00:43:33.652Z,100863.28
2017-04-18T00:44:34.514Z,100869.59
2017-04-18T00:45:36.871Z,100859.62
2017-04-18T00:46:40.822Z,100861.06
2017-04-18T00:47:52.152Z,100862.43
2017-04-18T00:48:54.122Z,100858.86
2017-04-18T00:50:01.178Z,100861.16
2017-04-18T00:51:04.775Z,100861.06
2017-04-18T00:52:08.375Z,100857.49
2017-04-18T00:53:10.497Z,100857.58
2017-04-18T00:54:13.133Z,100853.49
2017-04-18T00:55:15.655Z,100861.24
2017-04-18T00:56:18.615Z,100860.30
2017-04-18T00:57:19.691Z,100850.85
2017-04-18T00:58:22.454Z,100855.62
2017-04-18T00:59:25.819Z,100854.60
2017-04-18T01:00:31.479Z,100852.39
2017-04-18T01:01:33.163Z,100852.48
2017-04-18T01:02:35.971Z,100860.23
2017-04-18T01:03:39.715Z,100858.36
2017-04-18T01:04:43.211Z,100856.23
2017-04-18T01:05:44.464Z,100851.28
2017-04-18T01:06:53.035Z,100847.71
2017-04-18T01:07:58.932Z,100867.30
2017-04-18T01:09:08.177Z,100855.47
2017-04-18T01:10:10.478Z,100852.83
2017-04-18T01:11:17.740Z,100855.13
2017-04-18T01:12:20.042Z,100853.42
2017-04-18T01:13:21.643Z,100855.22
2017-04-18T01:14:25.234Z,100853.52
2017-04-18T01:15:26.283Z,100850.87
2017-04-18T01:16:27.468Z,100857.80
2017-04-18T01:17:31.923Z,100852.02
2017-04-18T01:18:36.597Z,100853.05
2017-04-18T01:19:38.747Z,100849.89
2017-04-18T01:20:40.865Z,100852.19
2017-04-18T01:21:43.599Z,100856.28
2017-04-18T01:22:45.798Z,100858.06
2017-04-18T01:23:51.906Z,100852.70
2017-04-18T01:24:55.471Z,100863.61
2017-04-18T01:25:56.474Z,100856.45
2017-04-18T01:26:57.847Z,100861.91
2017-04-18T01:28:01.352Z,100860.63
2017-04-18T01:29:04.211Z,100861.05
2017-04-18T01:30:06.038Z,100866.17
2017-04-18T01:31:08.096Z,100856.63
2017-04-18T01:32:10.308Z,100861.56
2017-04-18T01:33:15.282Z,100861.73
2017-04-18T01:34:19.012Z,100864.50
2017-04-18T01:35:21.307Z,100864.23
2017-04-18T01:36:22.229Z,100867.73
2017-04-18T01:37:25.674Z,100861.08
2017-04-18T01:38:28.181Z,100862.27
2017-04-18T01:39:32.018Z,100870.36
2017-04-18T01:41:38.365Z,100869.76
2017-04-18T01:42:48.857Z,100863.45
2017-04-18T01:43:57.915Z,100868.40
2017-04-18T01:45:04.618Z,100871.13
2017-04-18T01:46:38.443Z,100871.55
2017-04-18T01:47:42.877Z,100868.40
2017-04-18T01:48:44.943Z,100872.06
2017-04-18T01:49:47.461Z,100871.13
2017-04-18T01:50:48.909Z,100866.31
2017-04-18T01:51:49.930Z,100874.91
2017-04-18T01:52:52.397Z,100872.19
2017-04-18T01:53:54.751Z,100871.25
2017-04-18T01:54:57.380Z,100874.61
2017-04-18T01:56:01.991Z,100870.61
2017-04-18T01:57:02.672Z,100872.83
2017-04-18T01:58:07.086Z,100879.30
2017-04-18T01:59:09.247Z,100877.09
2017-04-18T02:00:12.158Z,100875.72
2017-04-18T02:01:13.726Z,100879.77
2017-04-18T02:02:16.143Z,100877.05
2017-04-18T02:03:20.651Z,100877.22
2017-04-18T02:04:21.491Z,100872.02
2017-04-18T02:05:22.569Z,100875.98
2017-04-18T02:06:24.426Z,100873.51
2017-04-18T02:07:29.456Z,100874.28
2017-04-18T02:08:30.591Z,100877.86
2017-04-18T02:09:31.427Z,100877.44
2017-04-18T02:10:35.131Z,100870.02
2017-04-18T02:11:35.235Z,100870.02
2017-04-18T02:12:37.128Z,100867.55
2017-04-18T02:13:38.303Z,100866.02
2017-04-18T02:14:40.671Z,100871.05
2017-04-18T02:15:43.647Z,100866.45
2017-04-18T02:16:44.578Z,100862.44
2017-04-18T02:17:46.752Z,100871.13
2017-04-18T02:18:48.575Z,100864.14
2017-04-18T02:19:50.900Z,100868.92
2017-04-18T02:20:56.695Z,100868.41
2017-04-18T02:21:57.567Z,100870.62
2017-04-18T02:23:04.603Z,100870.20
2017-04-18T02:24:08.621Z,100871.13
2017-04-18T02:25:09.270Z,100871.05
2017-04-18T02:26:11.646Z,100871.05
2017-04-18T02:27:14.340Z,100876.50
2017-04-18T02:28:14.758Z,100878.38
2017-04-18T02:29:16.120Z,100876.67
2017-04-18T02:30:19.159Z,100876.33
2017-04-18T02:31:24.375Z,100877.36
2017-04-18T02:32:26.246Z,100879.06
2017-04-18T02:33:28.315Z,100876.08
2017-04-18T02:34:33.167Z,100883.83
2017-04-18T02:35:33.991Z,100880.86
2017-04-18T02:36:37.372Z,100885.38
2017-04-18T02:37:40.156Z,100887.24
2017-04-18T02:38:45.452Z,100889.03
2017-04-18T02:39:47.664Z,100880.34
2017-04-18T02:40:48.995Z,100883.92
2017-04-18T02:41:51.943Z,100880.51
2017-04-18T02:42:57.459Z,100879.23
2017-04-18T02:44:00.353Z,100880.68
2017-04-18T02:45:04.653Z,100881.63
2017-04-18T02:46:06.480Z,100888.01
2017-04-18T02:47:10.531Z,100897.38
2017-04-18T02:48:12.987Z,100876.42
2017-04-18T02:49:14.725Z,100882.81
2017-04-18T02:50:17.275Z,100881.02
2017-04-18T02:52:31.772Z,100884.94
2017-04-18T02:53:34.186Z,100888.00
2017-04-18T02:54:37.468Z,100892.94
2017-04-18T02:55:39.342Z,100886.30
2017-04-18T02:56:43.171Z,100889.11
2017-04-18T02:57:45.617Z,100891.92
2017-04-18T02:58:52.334Z,100890.13
2017-04-18T02:59:56.199Z,100886.05
2017-04-18T03:00:57.698Z,100892.44
2017-04-18T03:01:59.786Z,100897.55
2017-04-18T03:03:01.185Z,100902.06
2017-04-18T03:04:04.813Z,100900.27
2017-04-18T03:05:06.959Z,100894.73
2017-04-18T03:06:11.247Z,100899.34
2017-04-18T03:07:13.220Z,100900.70
2017-04-18T03:08:15.758Z,100905.39
2017-04-18T03:09:17.076Z,100900.48
2017-04-18T03:10:19.835Z,100896.91
2017-04-18T03:11:21.955Z,100908.31
2017-04-18T03:12:24.904Z,100904.74
2017-04-18T03:13:27.207Z,100900.56
2017-04-18T03:14:28.886Z,100902.53
2017-04-18T03:15:30.595Z,100904.83
2017-04-18T03:16:32.150Z,100905.52
2017-04-18T03:17:33.852Z,100900.14
2017-04-18T03:18:35.823Z,100901.51
2017-04-18T03:19:37.752Z,100911.47
2017-04-18T03:20:42.374Z,100902.11
2017-04-18T03:21:43.878Z,100905.86
2017-04-18T03:22:47.100Z,100907.81
2017-04-18T03:23:51.234Z,100905.69
2017-04-18T03:24:54.443Z,100905.17
2017-04-18T03:25:56.147Z,100907.14
2017-04-18T03:26:58.333Z,100908.08
2017-04-18T03:28:00.322Z,100910.29
2017-04-18T03:29:03.206Z,100912.16
2017-04-18T03:30:05.630Z,100904.41
2017-04-18T03:31:08.256Z,100912.92
2017-04-18T03:32:11.118Z,100906.20
2017-04-18T03:33:12.530Z,100909.44
2017-04-18T03:34:13.066Z,100910.06
2017-04-18T03:35:14.882Z,100912.37
2017-04-18T03:36:16.862Z,100911.94
2017-04-18T03:37:20.253Z,100916.11
2017-04-18T03:38:22.876Z,100917.56
2017-04-18T03:39:26.523Z,100911.77
2017-04-18T03:40:30.309Z,100917.31
2017-04-18T03:41:31.508Z,100921.91
2017-04-18T03:42:33.526Z,100928.20
2017-04-18T03:43:37.432Z,100924.55
2017-04-18T03:44:41.442Z,100918.25
2017-04-18T03:45:42.937Z,100928.13
2017-04-18T03:46:46.038Z,100929.91
2017-04-18T03:47:47.591Z,100935.45
2017-04-18T03:48:53.047Z,100930.59
2017-04-18T03:49:53.666Z,100927.88
2017-04-18T03:50:56.103Z,100927.78
2017-04-18T03:52:03.354Z,100931.36
2017-04-18T03:53:05.682Z,100940.98
2017-04-18T03:54:09.184Z,100938.77
2017-04-18T03:55:13.093Z,100944.55
2017-04-18T03:56:14.879Z,100935.88
2017-04-18T03:57:17.071Z,100945.16
2017-04-18T03:58:18.246Z,100936.72
2017-04-18T03:59:21.980Z,100946.60
2017-04-18T04:00:23.476Z,100946.09
2017-04-18T04:01:25.332Z,100942.17
2017-04-18T04:02:27.822Z,100950.09
2017-04-18T04:03:30.530Z,100951.55
2017-04-18T04:04:34.049Z,100947.38
2017-04-18T04:05:35.999Z,100952.05
2017-04-18T04:06:38.650Z,100953.11
2017-04-18T04:07:41.892Z,100958.13
2017-04-18T04:08:44.164Z,100965.45
2017-04-18T04:09:45.370Z,100961.96
2017-04-18T04:10:52.169Z,100955.23
2017-04-18T04:11:53.904Z,100958.13
2017-04-18T04:12:56.271Z,100960.85
2017-04-18T04:13:58.978Z,100966.47
2017-04-18T04:15:02.693Z,100972.34
2017-04-18T04:16:05.020Z,100962.30
2017-04-18T04:17:07.487Z,100964.42
2017-04-18T04:18:10.316Z,100972.59
2017-04-18T04:19:12.871Z,100968.52
2017-04-18T04:20:17.268Z,100970.81
2017-04-18T04:21:21.859Z,100968.09
2017-04-18T04:22:23.629Z,100976.17
2017-04-18T04:23:26.574Z,100976.27
2017-04-18T04:24:28.872Z,100985.71
2017-04-18T04:25:32.136Z,100980.00
2017-04-18T04:26:37.223Z,100987.75
2017-04-18T04:27:38.528Z,100983.33
2017-04-18T04:28:40.955Z,100989.20
2017-04-18T04:29:42.363Z,100988.98
2017-04-18T04:30:45.524Z,100992.30
2017-04-18T04:31:47.255Z,100990.59
2017-04-18T04:32:49.111Z,100990.33
2017-04-18T04:33:52.013Z,100987.27
2017-04-18T04:34:52.574Z,100992.80
2017-04-18T04:35:53.567Z,100994.67
2017-04-18T04:36:54.138Z,100995.27
2017-04-18T04:37:54.254Z,100994.50
2017-04-18T04:38:55.137Z,100991.00
2017-04-18T04:39:55.226Z,100994.58
2017-04-18T04:40:56.297Z,100999.69
2017-04-18T04:41:56.398Z,101002.19
2017-04-18T04:42:56.507Z,100997.67
2017-04-18T04:43:56.753Z,101004.48
2017-04-18T04:45:00.574Z,100998.34
2017-04-18T04:46:03.955Z,101005.23
2017-04-18T04:47:05.039Z,101006.17
2017-04-18T04:48:09.022Z,101001.92
2017-04-18T04:49:10.952Z,101009.66
2017-04-18T04:50:13.540Z,101003.27
2017-04-18T04:51:14.965Z,101011.61
2017-04-18T04:52:16.376Z,101008.89
2017-04-18T04:53:16.555Z,101005.74
2017-04-18T04:54:16.683Z,101007.95
2017-04-18T04:55:16.778Z,101013.83
2017-04-18T04:56:16.899Z,101011.19
2017-04-18T04:57:16.995Z,101011.70
2017-04-18T04:58:17.122Z,101019.44
2017-04-18T04:59:18.051Z,101014.93
2017-04-18T05:00:18.160Z,101012.72
2017-04-18T05:01:18.712Z,101014.16
2017-04-18T05:02:19.030Z,101020.45
2017-04-18T05:03:19.884Z,101021.82
2017-04-18T05:04:20.016Z,101015.95
2017-04-18T05:05:20.207Z,101015.61
2017-04-18T05:06:26.100Z,101030.16
2017-04-18T05:07:26.743Z,101025.30
2017-04-18T05:08:28.363Z,101026.75
2017-04-18T05:09:30.230Z,101025.98
2017-04-18T05:10:36.155Z,101024.78
2017-04-18T05:11:41.425Z,101030.39
2017-04-18T05:12:43.779Z,101022.05
2017-04-18T05:13:46.442Z,101030.07
2017-04-18T05:14:49.292Z,101032.95
2017-04-18T05:15:50.159Z,101030.99
2017-04-18T05:16:52.512Z,101035.92
2017-04-18T05:17:54.332Z,101029.02
2017-04-18T05:18:56.129Z,101027.32
2017-04-18T05:19:59.383Z,101031.14
2017-04-18T05:21:03.450Z,101030.83
2017-04-18T05:22:03.613Z,101033.21
2017-04-18T05:23:05.529Z,101036.09
2017-04-18T05:24:05.666Z,101034.31
2017-04-18T05:25:05.879Z,101035.33
2017-04-18T05:26:06.727Z,101033.19
2017-04-18T05:27:06.853Z,101032.77
2017-04-18T05:28:06.962Z,101037.95
2017-04-18T05:29:07.682Z,101045.34
2017-04-18T05:30:08.723Z,101045.42
2017-04-18T05:31:21.586Z,101044.15
2017-04-18T05:32:22.429Z,101049.59
2017-04-18T05:33:22.871Z,101046.44
2017-04-18T05:34:23.095Z,101048.31
2017-04-18T05:35:23.265Z,101050.52
2017-04-18T05:36:24.090Z,101056.05
2017-04-18T05:37:24.228Z,101051.46
2017-04-18T05:38:24.340Z,101053.84
2017-04-18T05:39:24.442Z,101049.75
2017-04-18T05:40:25.041Z,101053.84
2017-04-18T05:41:25.164Z,101055.11
2017-04-18T05:42:25.272Z,101059.63
2017-04-18T05:43:25.526Z,101064.13
2017-04-18T05:44:26.380Z,101063.11
2017-04-18T05:45:28.079Z,101060.82
2017-04-18T05:46:29.626Z,101063.11
2017-04-18T05:47:30.264Z,101060.74
2017-04-18T05:48:32.906Z,101066.19
2017-04-18T05:49:35.296Z,101071.12
2017-04-18T05:50:35.501Z,101061.94
2017-04-18T05:51:35.622Z,101072.16
2017-04-18T05:52:35.733Z,101069.34
2017-04-18T05:53:35.842Z,101067.31
2017-04-18T05:54:35.957Z,101071.66
2017-04-18T05:55:36.850Z,101073.69
2017-04-18T05:56:36.970Z,101073.01
2017-04-18T05:57:37.099Z,101076.92
2017-04-18T05:58:37.223Z,101073.53
2017-04-18T05:59:37.442Z,101076.01
2017-04-18T06:00:37.667Z,101073.52
2017-04-18T06:01:37.834Z,101075.91
2017-04-18T06:02:38.312Z,101086.81
2017-04-18T06:03:39.052Z,101085.13
2017-04-18T06:04:40.623Z,101088.88
2017-04-18T06:05:42.034Z,101085.83
2017-04-18T06:06:44.887Z,101092.31
2017-04-18T06:07:46.950Z,101089.68
2017-04-18T06:08:46.319Z,101084.80
2017-04-18T06:09:46.439Z,101092.22
2017-04-18T06:10:46.579Z,101092.91
2017-04-18T06:11:46.673Z,101092.14
2017-04-18T06:12:47.601Z,101094.50
2017-04-18T06:13:49.711Z,101090.52
2017-04-18T06:14:51.376Z,101096.06
2017-04-18T06:15:54.013Z,101096.55
2017-04-18T06:16:55.803Z,101094.34
2017-04-18T06:17:57.927Z,101091.20
2017-04-18T06:19:01.654Z,101095.45
2017-04-18T06:20:05.384Z,101099.69
2017-04-18T06:21:06.700Z,101104.89
2017-04-18T06:22:10.703Z,101110.94
2017-04-18T06:23:13.832Z,101107.19
2017-04-18T06:24:16.636Z,101118.44
2017-04-18T06:25:19.927Z,101107.03
2017-04-18T06:26:24.543Z,101120.14
2017-04-18T06:27:27.514Z,101112.82
2017-04-18T06:28:30.237Z,101114.61
2017-04-18T06:29:39.610Z,101116.40
2017-04-18T06:30:46.220Z,101122.44
2017-04-18T06:31:49.794Z,101118.78
2017-04-18T06:32:52.689Z,101120.06
2017-04-18T06:33:54.475Z,101120.48
2017-04-18T06:34:58.012Z,101129.94
2017-04-18T06:36:00.041Z,101123.22
2017-04-18T06:37:02.774Z,101117.98
2017-04-18T06:38:06.774Z,101128.30
2017-04-18T06:39:08.353Z,101126.42
2017-04-18T06:40:10.414Z,101125.41
2017-04-18T06:41:13.143Z,101127.53
2017-04-18T06:42:15.663Z,101128.73
2017-04-18T06:43:18.668Z,101127.45
2017-04-18T06:44:20.087Z,101123.70
2017-04-18T06:45:22.227Z,101132.22
2017-04-18T06:46:24.155Z,101138.53
2017-04-18T06:47:27.655Z,101130.27
2017-04-18T06:48:30.485Z,101132.91
2017-04-18T06:49:32.467Z,101136.41
2017-04-18T06:50:35.770Z,101137.56
2017-04-18T06:51:43.935Z,101141.41
2017-04-18T06:52:45.178Z,101130.50
2017-04-18T06:53:49.990Z,101144.39
2017-04-18T06:54:54.979Z,101139.20
2017-04-18T06:55:57.183Z,101134.94
2017-04-18T06:57:03.640Z,101135.11
2017-04-18T06:58:06.499Z,101135.67
2017-04-18T06:59:09.890Z,101134.91
2017-04-18T07:00:11.855Z,101138.41
2017-04-18T07:01:14.595Z,101143.09
2017-04-18T07:02:17.611Z,101138.33
2017-04-18T07:03:19.996Z,101136.67
2017-04-18T07:04:22.939Z,101143.23
2017-04-18T07:05:25.104Z,101145.37
2017-04-18T07:06:27.967Z,101141.97
2017-04-18T07:07:28.860Z,101142.22
2017-04-18T07:08:29.907Z,101143.75
2017-04-18T07:09:31.591Z,101137.08
2017-04-18T07:10:33.088Z,101142.78
2017-04-18T07:11:34.240Z,101140.83
2017-04-18T07:12:36.351Z,101138.27
2017-04-18T07:13:40.708Z,101148.58
2017-04-18T07:14:48.927Z,101144.66
2017-04-18T07:15:52.098Z,101152.56
2017-04-18T07:16:59.371Z,101150.59
2017-04-18T07:18:02.855Z,101149.06
2017-04-18T07:19:06.456Z,101158.02
2017-04-18T07:20:08.804Z,101153.75
2017-04-18T07:21:11.130Z,101152.55
2017-04-18T07:22:14.355Z,101158.15
2017-04-18T07:23:17.100Z,101158.66
2017-04-18T07:24:18.482Z,101156.86
2017-04-18T07:25:21.363Z,101158.20
2017-04-18T07:26:31.725Z,101159.98
2017-04-18T07:27:34.732Z,101159.64
2017-04-18T07:28:35.742Z,101162.96
2017-04-18T07:29:38.413Z,101166.25
2017-04-18T07:30:41.608Z,101156.78
2017-04-18T07:32:54.893Z,101158.13
2017-04-18T07:33:57.911Z,101157.84
2017-04-18T07:34:59.771Z,101156.30
2017-04-18T07:36:00.975Z,101154.59
2017-04-18T07:37:02.577Z,101155.27
2017-04-18T07:38:05.554Z,101151.34
2017-04-18T07:39:09.091Z,101157.78
2017-04-18T07:40:10.495Z,101152.06
2017-04-18T07:41:13.408Z,101153.08
2017-04-18T07:42:16.703Z,101155.37
2017-04-18T07:43:24.418Z,101156.53
2017-04-18T07:44:26.299Z,101156.94
2017-04-18T07:45:38.591Z,101163.42
2017-04-18T07:46:47.976Z,101161.03
2017-04-18T07:47:54.439Z,101157.61
2017-04-18T07:49:08.556Z,101158.77
2017-04-18T07:50:10.142Z,101160.38
2017-04-18T07:51:21.030Z,101166.77
2017-04-18T07:52:29.219Z,101166.94
2017-04-18T07:53:33.154Z,101161.94
2017-04-18T07:54:35.136Z,101169.69
2017-04-18T07:55:36.084Z,101166.70
2017-04-18T07:56:39.253Z,101160.45
2017-04-18T07:57:43.574Z,101165.19
2017-04-18T07:58:48.889Z,101176.63
2017-04-18T07:59:53.612Z,101165.60
2017-04-18T08:00:57.256Z,101160.81
2017-04-18T08:02:06.130Z,101164.55
2017-04-18T08:03:07.668Z,101160.49
2017-04-18T08:04:15.157Z,101166.63
2017-04-18T08:05:24.475Z,101170.13
2017-04-18T08:06:26.918Z,101165.00
2017-04-18T08:07:28.715Z,101168.77
2017-04-18T08:08:31.537Z,101170.64
2017-04-18T08:09:34.536Z,101176.80
2017-04-18T08:10:39.066Z,101170.58
2017-04-18T08:11:40.975Z,101180.86
2017-04-18T08:12:47.188Z,101172.75
2017-04-18T08:13:50.478Z,101178.31
2017-04-18T08:14:54.471Z,101181.56
2017-04-18T08:15:58.735Z,101181.12
2017-04-18T08:17:01.082Z,101192.58
2017-04-18T08:18:02.682Z,101192.58
2017-04-18T08:19:07.204Z,101191.81
2017-04-18T08:20:14.196Z,101187.72
2017-04-18T08:21:19.068Z,101192.75
2017-04-18T08:22:24.879Z,101192.33
2017-04-18T08:23:34.916Z,101199.16
2017-04-18T08:24:50.683Z,101200.53
2017-04-18T08:25:54.733Z,101206.84
2017-04-18T08:27:01.053Z,101198.13
2017-04-18T08:28:06.291Z,101203.00
2017-04-18T08:29:07.361Z,101203.67
2017-04-18T08:30:09.395Z,101201.06
2017-04-18T08:31:12.328Z,101205.58
2017-04-18T08:32:15.156Z,101216.58
2017-04-18T08:33:19.528Z,101209.30
2017-04-18T08:34:24.923Z,101215.19
2017-04-18T08:35:27.048Z,101202.86
2017-04-18T08:36:28.236Z,101205.45
2017-04-18T08:37:33.151Z,101211.94
2017-04-18T08:38:35.795Z,101212.34
2017-04-18T08:39:38.730Z,101216.72
2017-04-18T08:40:43.949Z,101220.05
2017-04-18T08:41:45.567Z,101215.06
2017-04-18T08:42:47.787Z,101222.97
2017-04-18T08:43:54.269Z,101220.91
2017-04-18T08:44:59.279Z,101223.28
2017-04-18T08:46:04.826Z,101220.61
2017-04-18T08:47:13.357Z,101226.21
2017-04-18T08:48:14.613Z,101227.64
2017-04-18T08:49:18.278Z,101222.84
2017-04-18T08:50:23.712Z,101224.80
2017-04-18T08:51:30.967Z,101222.39
2017-04-18T08:52:32.326Z,101232.30
2017-04-18T08:53:39.855Z,101237.17
2017-04-18T08:54:43.043Z,101236.92
2017-04-18T08:55:47.038Z,101239.14
2017-04-18T08:56:58.237Z,101248.39
2017-04-18T08:58:04.431Z,101244.98
2017-04-18T08:59:15.603Z,101243.19
2017-04-18T09:00:21.031Z,101245.49
2017-04-18T09:01:23.599Z,101247.53
2017-04-18T09:02:26.394Z,101246.33
2017-04-18T09:03:28.998Z,101252.77
2017-04-18T09:04:29.875Z,101256.00
2017-04-18T09:05:30.081Z,101253.78
2017-04-18T09:06:30.210Z,101262.58
2017-04-18T09:07:30.399Z,101260.64
2017-04-18T09:08:29.853Z,101255.98
2017-04-18T09:09:30.394Z,101255.77
2017-04-18T09:10:31.362Z,101268.90
2017-04-18T09:11:32.010Z,101257.98
2017-04-18T09:12:32.975Z,101263.12
2017-04-18T09:13:33.666Z,101270.59
2017-04-18T09:14:34.899Z,101263.58
2017-04-18T09:15:35.271Z,101267.41
2017-04-18T09:16:35.878Z,101266.70
2017-04-18T09:17:36.610Z,101270.63
2017-04-18T09:18:36.753Z,101264.94
2017-04-18T09:19:37.226Z,101269.70
2017-04-18T09:20:37.354Z,101272.92
2017-04-18T09:21:37.479Z,101267.59
2017-04-18T09:22:37.605Z,101273.13
2017-04-18T09:23:37.798Z,101273.23
2017-04-18T09:24:38.042Z,101276.55
2017-04-18T09:25:38.194Z,101274.14
2017-04-18T09:26:38.377Z,101273.72
2017-04-18T09:27:38.504Z,101274.14
2017-04-18T09:28:38.622Z,101277.73
2017-04-18T09:29:38.739Z,101282.42
2017-04-18T09:30:38.878Z,101282.95
2017-04-18T09:31:39.029Z,101279.36
2017-04-18T09:32:40.218Z,101276.27
2017-04-18T09:33:41.670Z,101285.59
2017-04-18T09:34:42.387Z,101278.88
2017-04-18T09:35:42.691Z,101281.77
2017-04-18T09:36:44.419Z,101280.22
2017-04-18T09:37:47.198Z,101282.40
2017-04-18T09:38:47.599Z,101283.59
2017-04-18T09:39:49.225Z,101280.84
2017-04-18T09:40:51.063Z,101281.52
2017-04-18T09:41:51.814Z,101285.54
2017-04-18T09:42:52.791Z,101284.08
2017-04-18T09:43:55.312Z,101286.02
2017-04-18T09:44:55.697Z,101291.32
2017-04-18T09:45:55.942Z,101291.75
2017-04-18T09:46:56.990Z,101294.39
2017-04-18T09:47:57.765Z,101282.89
2017-04-18T09:48:58.570Z,101293.45
2017-04-18T09:49:58.750Z,101293.45
2017-04-18T09:50:58.870Z,101292.50
2017-04-18T09:51:59.020Z,101293.97
2017-04-18T09:52:59.143Z,101295.77
2017-04-18T09:53:59.267Z,101295.34
2017-04-18T09:54:59.390Z,101295.91
2017-04-18T09:55:59.499Z,101301.59
2017-04-18T09:57:00.429Z,101295.82
2017-04-18T09:58:00.582Z,101299.66
2017-04-18T09:59:00.726Z,101300.73
2017-04-18T10:00:00.846Z,101296.02
2017-04-18T10:01:00.966Z,101304.19
2017-04-18T10:02:01.106Z,101298.66
2017-04-18T10:03:01.426Z,101297.88
2017-04-18T10:04:02.246Z,101291.91
2017-04-18T10:05:02.388Z,101292.84
2017-04-18T10:06:02.514Z,101296.67
2017-04-18T10:07:02.666Z,101289.84
2017-04-18T10:08:03.324Z,101299.50
2017-04-18T10:09:03.563Z,101296.65
2017-04-18T10:10:03.662Z,101299.59
2017-04-18T10:11:03.799Z,101297.56
2017-04-18T10:12:04.678Z,101296.16
2017-04-18T10:13:04.798Z,101296.02
2017-04-18T10:14:04.898Z,101297.16
2017-04-18T10:15:05.011Z,101300.56
2017-04-18T10:16:05.229Z,101301.60
2017-04-18T10:17:05.342Z,101305.06
2017-04-18T10:18:05.758Z,101306.02
2017-04-18T10:19:05.902Z,101302.19
2017-04-18T10:20:06.746Z,101301.14
2017-04-18T10:21:06.859Z,101298.20
2017-04-18T10:22:06.991Z,101300.86
2017-04-18T10:23:07.091Z,101305.70
2017-04-18T10:24:07.203Z,101296.69
2017-04-18T10:25:07.325Z,101304.09
2017-04-18T10:26:07.449Z,101294.14
2017-04-18T10:27:07.587Z,101295.90
2017-04-18T10:28:08.454Z,101296.73
2017-04-18T10:29:08.580Z,101309.52
2017-04-18T10:30:08.705Z,101305.64
2017-04-18T10:31:08.817Z,101319.19
2017-04-18T10:32:08.958Z,101313.78
2017-04-18T10:33:10.730Z,101323.91
2017-04-18T10:34:12.259Z,101318.01
2017-04-18T10:35:12.466Z,101308.53
2017-04-18T10:36:13.293Z,101323.33
2017-04-18T10:37:13.454Z,101325.97
2017-04-18T10:38:13.603Z,101325.15
2017-04-18T10:39:13.735Z,101333.41
2017-04-18T10:40:13.831Z,101339.44
2017-04-18T10:41:13.933Z,101336.98
2017-04-18T10:42:14.059Z,101329.37
2017-04-18T10:43:14.146Z,101334.95
2017-04-18T10:44:14.238Z,101327.14
2017-04-18T10:45:14.335Z,101326.48
2017-04-18T10:46:14.445Z,101327.89
2017-04-18T10:47:14.899Z,101329.40
2017-04-18T10:48:14.995Z,101330.28
2017-04-18T10:49:15.486Z,101336.56
2017-04-18T10:50:15.604Z,101329.27
2017-04-18T10:51:15.722Z,101329.45
2017-04-18T10:52:15.825Z,101335.55
2017-04-18T10:53:15.927Z,101335.98
2017-04-18T10:54:16.038Z,101341.66
2017-04-18T10:55:16.154Z,101339.62
2017-04-18T10:56:16.264Z,101353.09
2017-04-18T10:57:16.438Z,101355.39
2017-04-18T10:58:16.554Z,101352.88
2017-04-18T10:59:16.649Z,101358.25
2017-04-18T11:00:17.314Z,101352.63
2017-04-18T11:01:18.335Z,101370.80
2017-04-18T11:02:21.128Z,101370.84
2017-04-18T11:03:23.004Z,101366.00
2017-04-18T11:04:24.046Z,101374.98
2017-04-18T11:05:24.554Z,101365.50
2017-04-18T11:06:25.735Z,101378.78
2017-04-18T11:07:26.154Z,101394.62
2017-04-18T11:08:28.228Z,101384.65
2017-04-18T11:09:28.490Z,101394.39
2017-04-18T11:10:28.636Z,101401.39
2017-04-18T11:11:28.767Z,101389.40
2017-04-18T11:12:28.926Z,101390.58
2017-04-18T11:13:29.042Z,101399.53
2017-04-18T11:14:29.169Z,101405.91
2017-04-18T11:15:29.286Z,101406.91
2017-04-18T11:16:30.198Z,101397.45
2017-04-18T11:17:30.326Z,101394.16
2017-04-18T11:18:30.440Z,101390.86
2017-04-18T11:19:30.570Z,101390.44
2017-04-18T11:20:30.793Z,101390.90
2017-04-18T11:21:30.910Z,101381.93
2017-04-18T11:22:31.075Z,101386.31
2017-04-18T11:23:31.206Z,101386.48
2017-04-18T11:24:31.306Z,101394.42
2017-04-18T11:25:31.427Z,101381.62
2017-04-18T11:26:31.534Z,101382.98
2017-04-18T11:27:31.711Z,101380.34
2017-04-18T11:28:31.843Z,101378.29
2017-04-18T11:29:31.966Z,101382.48
2017-04-18T11:30:32.070Z,101377.06
2017-04-18T11:31:32.926Z,101380.05
2017-04-18T11:32:33.440Z,101378.83
2017-04-18T11:33:33.559Z,101378.14
2017-04-18T11:34:33.901Z,101378.88
2017-04-18T11:35:34.050Z,101377.67
2017-04-18T11:36:34.910Z,101369.69
2017-04-18T11:37:34.277Z,101369.93
2017-04-18T11:38:34.737Z,101374.62
2017-04-18T11:39:34.843Z,101374.91
2017-04-18T11:40:34.957Z,101375.63
2017-04-18T11:41:35.074Z,101379.84
2017-04-18T11:42:35.195Z,101372.97
2017-04-18T11:43:35.309Z,101371.63
2017-04-18T11:44:35.419Z,101373.45
2017-04-18T11:45:35.526Z,101367.94
2017-04-18T11:46:35.659Z,101372.58
2017-04-18T11:47:36.014Z,101365.02
2017-04-18T11:48:36.882Z,101366.07
2017-04-18T11:49:37.038Z,101357.35
2017-04-18T11:50:37.164Z,101367.66
2017-04-18T11:51:37.286Z,101359.27
2017-04-18T11:52:37.444Z,101361.91
2017-04-18T11:53:38.582Z,101367.55